createdAt,value
2023-08-30T00:00:12.262Z,50.40
2023-08-30T00:02:39.023Z,50.50
2023-08-30T00:05:06.185Z,50.30
2023-08-30T00:07:34.353Z,50.00
2023-08-30T00:10:01.089Z,50.20
2023-08-30T00:12:27.831Z,50.10
2023-08-30T00:14:55.387Z,50.30
2023-08-30T00:17:22.346Z,50.10
2023-08-30T00:19:49.198Z,50.00
2023-08-30T00:22:16.211Z,50.30
2023-08-30T00:24:44.335Z,50.30
2023-08-30T00:27:11.130Z,50.90
2023-08-30T00:29:37.924Z,50.60
2023-08-30T00:32:05.228Z,50.70
2023-08-30T00:34:32.102Z,51.30
2023-08-30T00:36:58.921Z,51.70
2023-08-30T00:39:25.900Z,51.80
2023-08-30T00:41:54.061Z,51.50
2023-08-30T00:44:20.802Z,51.30
2023-08-30T00:46:47.986Z,51.80
2023-08-30T00:49:15.081Z,52.00
2023-08-30T00:51:42.196Z,51.90
2023-08-30T00:54:09.194Z,51.90
2023-08-30T00:56:36.376Z,51.60
2023-08-30T00:59:04.486Z,51.20
2023-08-30T01:01:31.822Z,51.50
2023-08-30T01:03:58.593Z,51.20
2023-08-30T01:06:25.412Z,51.30
2023-08-30T01:08:52.224Z,51.40
2023-08-30T01:11:26.968Z,50.80
2023-08-30T01:13:57.921Z,51.30
2023-08-30T01:16:26.552Z,50.90
2023-08-30T01:18:57.379Z,50.80
2023-08-30T01:21:33.600Z,50.80
2023-08-30T01:24:01.783Z,51.40
2023-08-30T01:26:41.357Z,51.30
2023-08-30T01:29:11.451Z,51.40
2023-08-30T01:31:39.119Z,51.40
2023-08-30T01:34:06.300Z,51.70
2023-08-30T01:36:34.158Z,51.00
2023-08-30T01:39:01.782Z,51.30
2023-08-30T01:41:30.349Z,51.20
2023-08-30T01:43:58.296Z,51.40
2023-08-30T01:46:27.383Z,50.80
2023-08-30T01:48:55.841Z,51.60
2023-08-30T01:51:23.108Z,51.70
2023-08-30T01:53:53.276Z,51.70
2023-08-30T01:56:20.281Z,51.50
2023-08-30T01:58:47.368Z,51.20
2023-08-30T02:01:14.291Z,51.40
2023-08-30T02:03:44.826Z,51.50
2023-08-30T02:06:18.508Z,51.60
2023-08-30T02:08:51.578Z,51.10
2023-08-30T02:11:23.168Z,51.10
2023-08-30T02:13:51.342Z,51.30
2023-08-30T02:16:19.917Z,51.10
2023-08-30T02:18:49.309Z,50.90
2023-08-30T02:21:16.328Z,51.10
2023-08-30T02:23:43.192Z,50.70
2023-08-30T02:26:10.063Z,50.40
2023-08-30T02:28:36.968Z,50.50
2023-08-30T02:31:04.259Z,50.40
2023-08-30T02:33:31.123Z,50.10
2023-08-30T02:35:59.399Z,50.50
2023-08-30T02:38:26.656Z,51.10
2023-08-30T02:40:53.607Z,50.40
2023-08-30T02:43:20.559Z,51.00
2023-08-30T02:45:47.642Z,51.30
2023-08-30T02:48:14.889Z,51.20
2023-08-30T02:50:42.004Z,50.80
2023-08-30T02:53:10.231Z,50.80
2023-08-30T02:55:37.258Z,51.10
2023-08-30T02:58:04.569Z,51.40
2023-08-30T03:00:31.478Z,51.40
2023-08-30T03:02:58.652Z,50.70
2023-08-30T03:05:25.626Z,50.80
2023-08-30T03:07:53.946Z,51.40
2023-08-30T03:10:22.204Z,51.30
2023-08-30T03:12:49.070Z,51.60
2023-08-30T03:15:16.054Z,51.40
2023-08-30T03:17:42.941Z,51.60
2023-08-30T03:20:10.503Z,51.00
2023-08-30T03:22:37.375Z,51.30
2023-08-30T03:25:04.920Z,50.70
2023-08-30T03:27:33.822Z,51.90
2023-08-30T03:30:00.791Z,51.70
2023-08-30T03:32:27.829Z,51.10
2023-08-30T03:34:54.684Z,51.10
2023-08-30T03:37:21.531Z,51.10
2023-08-30T03:39:48.423Z,51.20
2023-08-30T03:42:15.564Z,50.70
2023-08-30T03:44:43.895Z,50.60
2023-08-30T03:47:10.764Z,50.40
2023-08-30T03:49:38.304Z,50.80
2023-08-30T03:52:05.963Z,50.60
2023-08-30T03:54:33.095Z,50.70
2023-08-30T03:57:00.030Z,51.60
2023-08-30T03:59:28.259Z,50.90
2023-08-30T04:01:56.774Z,50.40
2023-08-30T04:04:23.695Z,50.30
2023-08-30T04:06:50.642Z,50.20
2023-08-30T04:09:17.751Z,50.60
2023-08-30T04:11:45.192Z,50.80
2023-08-30T04:14:12.111Z,50.90
2023-08-30T04:16:39.251Z,50.90
2023-08-30T04:19:07.790Z,52.00
2023-08-30T04:21:34.684Z,51.20
2023-08-30T04:24:01.686Z,51.50
2023-08-30T04:26:28.710Z,51.30
2023-08-30T04:28:55.629Z,51.10
2023-08-30T04:31:22.666Z,51.10
2023-08-30T04:33:49.580Z,51.20
2023-08-30T04:36:17.919Z,51.10
2023-08-30T04:38:56.277Z,50.80
2023-08-30T04:41:29.180Z,50.80
2023-08-30T04:43:56.030Z,50.50
2023-08-30T04:46:23.013Z,50.80
2023-08-30T04:48:50.067Z,50.60
2023-08-30T04:51:18.318Z,50.70
2023-08-30T04:53:45.139Z,50.60
2023-08-30T04:56:12.876Z,50.50
2023-08-30T04:58:40.060Z,50.70
2023-08-30T05:01:07.036Z,50.90
2023-08-30T05:03:34.141Z,51.10
2023-08-30T05:06:01.075Z,51.20
2023-08-30T05:08:29.491Z,51.50
2023-08-30T05:10:56.717Z,51.50
2023-08-30T05:13:23.778Z,51.20
2023-08-30T05:15:50.672Z,51.00
2023-08-30T05:18:17.954Z,51.00
2023-08-30T05:20:44.864Z,51.60
2023-08-30T05:23:11.774Z,51.50
2023-08-30T05:25:40.052Z,52.30
2023-08-30T05:28:07.520Z,52.20
2023-08-30T05:30:34.682Z,52.70
2023-08-30T05:33:01.894Z,52.00
2023-08-30T05:35:28.884Z,51.90
2023-08-30T05:37:55.913Z,51.90
2023-08-30T05:40:22.826Z,52.30
2023-08-30T05:42:51.053Z,51.80
2023-08-30T05:45:18.185Z,52.00
2023-08-30T05:47:45.138Z,52.00
2023-08-30T05:50:12.164Z,52.40
2023-08-30T05:52:39.089Z,52.70
2023-08-30T05:55:06.689Z,52.20
2023-08-30T05:57:33.646Z,52.40
2023-08-30T06:00:02.125Z,52.60
2023-08-30T06:02:30.357Z,52.40
2023-08-30T06:04:57.359Z,52.10
2023-08-30T06:07:24.505Z,52.30
2023-08-30T06:09:51.457Z,52.90
2023-08-30T06:12:18.374Z,53.10
2023-08-30T06:14:45.955Z,52.40
2023-08-30T06:17:14.211Z,52.40
2023-08-30T06:19:41.160Z,52.60
2023-08-30T06:22:08.058Z,52.80
2023-08-30T06:24:34.952Z,53.80
2023-08-30T06:27:02.003Z,53.60
2023-08-30T06:29:29.140Z,53.40
2023-08-30T06:31:56.179Z,53.70
2023-08-30T06:34:24.644Z,53.90
2023-08-30T06:36:51.664Z,54.00
2023-08-30T06:39:18.653Z,54.10
2023-08-30T06:41:45.465Z,54.20
2023-08-30T06:44:12.364Z,54.10
2023-08-30T06:46:39.213Z,54.00
2023-08-30T06:49:06.766Z,54.10
2023-08-30T06:51:35.138Z,54.00
2023-08-30T06:54:02.152Z,54.00
2023-08-30T06:56:29.038Z,54.10
2023-08-30T06:58:55.871Z,53.70
2023-08-30T07:01:22.759Z,53.60
2023-08-30T07:03:49.787Z,53.40
2023-08-30T07:06:16.740Z,53.30
2023-08-30T07:08:44.996Z,53.30
2023-08-30T07:11:23.602Z,53.50
2023-08-30T07:13:55.140Z,53.30
2023-08-30T07:16:22.307Z,53.80
2023-08-30T07:18:49.350Z,53.10
2023-08-30T07:21:16.257Z,53.10
2023-08-30T07:23:45.549Z,52.70
2023-08-30T07:26:12.469Z,52.40
2023-08-30T07:28:39.325Z,52.20
2023-08-30T07:31:07.482Z,52.30
2023-08-30T07:33:34.486Z,52.20
2023-08-30T07:36:01.706Z,52.00
2023-08-30T07:38:28.693Z,51.50
2023-08-30T07:40:56.993Z,50.90
2023-08-30T07:43:23.804Z,50.40
2023-08-30T07:45:50.937Z,50.40
2023-08-30T07:48:17.981Z,50.00
2023-08-30T07:50:44.888Z,50.00
2023-08-30T07:53:12.010Z,49.60
2023-08-30T07:55:39.133Z,49.50
2023-08-30T07:58:07.827Z,49.30
2023-08-30T08:00:36.056Z,49.20
2023-08-30T08:03:03.340Z,48.70
2023-08-30T08:05:30.353Z,49.20
2023-08-30T08:08:01.545Z,49.30
2023-08-30T08:10:28.515Z,48.20
2023-08-30T08:12:56.777Z,48.60
2023-08-30T08:15:25.249Z,48.70
2023-08-30T08:17:52.204Z,48.70
2023-08-30T08:20:19.227Z,47.70
2023-08-30T08:22:46.123Z,47.70
2023-08-30T08:25:13.289Z,48.00
2023-08-30T08:27:40.303Z,47.50
2023-08-30T08:30:08.483Z,47.20
2023-08-30T08:32:37.070Z,47.60
2023-08-30T08:35:04.407Z,47.60
2023-08-30T08:37:32.064Z,47.10
2023-08-30T08:39:59.132Z,46.80
2023-08-30T08:42:26.950Z,47.10
2023-08-30T08:44:55.544Z,47.20
2023-08-30T08:47:22.650Z,46.20
2023-08-30T08:49:52.243Z,45.20
2023-08-30T08:52:29.644Z,45.90
2023-08-30T08:55:00.204Z,45.80
2023-08-30T08:57:29.696Z,44.90
2023-08-30T08:59:57.382Z,44.90
2023-08-30T09:02:25.726Z,44.90
2023-08-30T09:04:54.682Z,45.00
2023-08-30T09:07:21.665Z,44.00
2023-08-30T09:09:49.233Z,44.50
2023-08-30T09:12:16.167Z,44.90
2023-08-30T09:14:53.530Z,43.70
2023-08-30T09:17:20.415Z,44.10
2023-08-30T09:19:47.278Z,43.00
2023-08-30T09:22:15.807Z,42.10
2023-08-30T09:24:43.196Z,42.10
2023-08-30T09:27:10.146Z,40.60
2023-08-30T09:29:37.228Z,41.40
2023-08-30T09:32:04.681Z,40.80
2023-08-30T09:34:31.688Z,41.90
2023-08-30T09:36:59.093Z,42.90
2023-08-30T09:39:27.327Z,41.90
2023-08-30T09:41:55.658Z,41.50
2023-08-30T09:44:22.870Z,39.10
2023-08-30T09:46:53.229Z,40.60
2023-08-30T09:49:22.507Z,41.10
2023-08-30T09:51:51.159Z,38.60
2023-08-30T09:56:51.346Z,38.70
2023-08-30T09:59:18.309Z,39.20
2023-08-30T10:01:47.329Z,40.40
2023-08-30T10:04:14.821Z,39.80
2023-08-30T10:06:42.025Z,41.30
2023-08-30T10:09:10.228Z,43.30
2023-08-30T10:11:38.132Z,39.70
2023-08-30T10:14:07.590Z,39.30
2023-08-30T10:16:41.854Z,37.40
2023-08-30T10:19:12.154Z,37.70
2023-08-30T10:21:39.874Z,37.10
2023-08-30T10:24:26.455Z,35.50
2023-08-30T10:26:57.739Z,35.00
2023-08-30T10:29:26.901Z,35.90
2023-08-30T10:31:53.838Z,39.60
2023-08-30T10:34:20.775Z,39.00
2023-08-30T10:36:57.814Z,39.40
2023-08-30T10:39:34.386Z,39.00
2023-08-30T10:42:01.335Z,37.50
2023-08-30T10:44:29.573Z,40.00
2023-08-30T10:46:58.036Z,36.60
2023-08-30T10:49:25.033Z,34.80
2023-08-30T10:51:58.642Z,33.90
2023-08-30T10:54:25.843Z,33.80
2023-08-30T10:56:56.835Z,35.60
2023-08-30T10:59:24.498Z,37.00
2023-08-30T11:01:54.439Z,34.50
2023-08-30T11:04:21.699Z,34.10
2023-08-30T11:06:49.694Z,35.50
2023-08-30T11:09:17.841Z,37.30
2023-08-30T11:11:44.777Z,36.40
2023-08-30T11:14:11.735Z,36.00
2023-08-30T11:16:39.376Z,35.00
2023-08-30T11:19:09.524Z,37.00
2023-08-30T11:21:38.640Z,37.50
2023-08-30T11:24:06.337Z,37.00
2023-08-30T11:26:33.578Z,38.20
2023-08-30T11:29:05.756Z,36.80
2023-08-30T11:31:32.691Z,36.90
2023-08-30T11:34:00.456Z,37.10
2023-08-30T11:36:29.683Z,38.20
2023-08-30T11:38:57.271Z,36.60
2023-08-30T11:41:24.977Z,35.60
2023-08-30T11:43:52.486Z,37.20
2023-08-30T11:46:19.805Z,36.80
2023-08-30T11:48:48.376Z,37.40
2023-08-30T11:51:15.972Z,37.20
2023-08-30T11:53:44.815Z,37.20
2023-08-30T11:56:12.382Z,35.60
2023-08-30T11:58:39.968Z,35.50
2023-08-30T12:01:08.402Z,37.10
2023-08-30T12:03:35.458Z,37.70
2023-08-30T12:06:02.229Z,37.30
2023-08-30T12:08:31.289Z,35.50
2023-08-30T12:10:59.583Z,36.90
2023-08-30T12:13:27.359Z,35.80
2023-08-30T12:15:54.601Z,35.60
2023-08-30T12:18:24.467Z,38.20
2023-08-30T12:20:55.567Z,35.30
2023-08-30T12:23:23.395Z,36.20
2023-08-30T12:26:02.547Z,36.50
2023-08-30T12:28:29.934Z,37.00
2023-08-30T12:30:57.584Z,36.60
2023-08-30T12:33:25.062Z,37.90
2023-08-30T12:35:52.032Z,37.10
2023-08-30T12:38:19.104Z,35.90
2023-08-30T12:40:46.452Z,36.10
2023-08-30T12:43:14.966Z,37.80
2023-08-30T12:45:42.210Z,38.10
2023-08-30T12:48:09.959Z,36.40
2023-08-30T12:50:37.400Z,35.30
2023-08-30T12:53:04.959Z,35.90
2023-08-30T12:55:31.951Z,35.50
2023-08-30T12:57:59.158Z,34.90
2023-08-30T13:00:27.576Z,38.20
2023-08-30T13:02:54.459Z,36.30
2023-08-30T13:05:21.881Z,34.10
2023-08-30T13:07:49.077Z,36.00
2023-08-30T13:10:16.202Z,36.50
2023-08-30T13:12:43.546Z,35.00
2023-08-30T13:15:11.050Z,33.80
2023-08-30T13:17:39.346Z,35.30
2023-08-30T13:20:07.164Z,36.50
2023-08-30T13:22:33.909Z,37.20
2023-08-30T13:25:01.841Z,36.20
2023-08-30T13:27:30.561Z,36.60
2023-08-30T13:29:57.363Z,37.30
2023-08-30T13:32:24.315Z,34.60
2023-08-30T13:34:52.585Z,35.30
2023-08-30T13:37:19.696Z,36.90
2023-08-30T13:39:46.472Z,35.20
2023-08-30T13:42:13.331Z,35.40
2023-08-30T13:44:40.204Z,33.60
2023-08-30T13:47:21.825Z,35.80
2023-08-30T13:49:48.660Z,34.80
2023-08-30T13:52:16.816Z,33.30
2023-08-30T13:54:43.735Z,34.50
2023-08-30T13:57:10.663Z,34.30
2023-08-30T13:59:37.550Z,33.10
2023-08-30T14:02:04.938Z,32.70
2023-08-30T14:04:31.724Z,33.30
2023-08-30T14:06:58.574Z,35.20
2023-08-30T14:09:26.709Z,33.90
2023-08-30T14:11:53.622Z,33.80
2023-08-30T14:14:20.762Z,33.50
2023-08-30T14:16:47.548Z,35.10
2023-08-30T14:19:17.677Z,33.70
2023-08-30T14:21:44.502Z,33.50
2023-08-30T14:24:11.342Z,33.30
2023-08-30T14:26:39.508Z,33.60
2023-08-30T14:29:06.307Z,35.00
2023-08-30T14:31:33.083Z,35.50
2023-08-30T14:33:59.930Z,36.30
2023-08-30T14:36:26.751Z,37.10
2023-08-30T14:38:53.627Z,36.90
2023-08-30T14:41:20.519Z,37.00
2023-08-30T14:43:48.664Z,37.00
2023-08-30T14:46:18.350Z,36.10
2023-08-30T14:48:49.549Z,37.10
2023-08-30T14:51:16.329Z,36.60
2023-08-30T14:53:43.172Z,36.40
2023-08-30T14:56:10.018Z,36.70
2023-08-30T14:58:37.168Z,37.60
2023-08-30T15:01:05.962Z,37.10
2023-08-30T15:03:33.424Z,37.20
2023-08-30T15:06:00.404Z,37.20
2023-08-30T15:08:27.761Z,37.30
2023-08-30T15:10:54.607Z,37.60
2023-08-30T15:13:21.875Z,37.50
2023-08-30T15:15:48.783Z,37.40
2023-08-30T15:18:17.201Z,37.90
2023-08-30T15:20:44.684Z,37.70
2023-08-30T15:23:14.480Z,38.10
2023-08-30T15:25:41.299Z,38.60
2023-08-30T15:28:08.195Z,37.50
2023-08-30T15:30:35.036Z,38.60
2023-08-30T15:33:02.037Z,38.20
2023-08-30T15:35:30.289Z,38.00
2023-08-30T15:37:57.161Z,38.30
2023-08-30T15:40:24.416Z,39.00
2023-08-30T15:42:51.195Z,37.80
2023-08-30T15:45:17.985Z,37.70
2023-08-30T15:47:45.044Z,38.30
2023-08-30T15:50:11.896Z,37.80
2023-08-30T15:52:40.038Z,38.20
2023-08-30T15:55:07.729Z,38.10
2023-08-30T15:57:34.549Z,38.30
2023-08-30T16:00:01.468Z,38.50
2023-08-30T16:02:28.430Z,38.10
2023-08-30T16:04:55.453Z,38.20
2023-08-30T16:07:22.234Z,37.90
2023-08-30T16:09:50.394Z,38.50
2023-08-30T16:12:17.134Z,37.60
2023-08-30T16:14:43.904Z,38.30
2023-08-30T16:17:10.686Z,38.30
2023-08-30T16:19:37.440Z,38.40
2023-08-30T16:22:04.778Z,37.90
2023-08-30T16:24:32.306Z,38.70
2023-08-30T16:27:00.552Z,38.10
2023-08-30T16:29:27.765Z,39.50
2023-08-30T16:31:54.688Z,39.00
2023-08-30T16:34:22.279Z,38.80
2023-08-30T16:36:49.827Z,39.00
2023-08-30T16:39:16.998Z,38.80
2023-08-30T16:41:44.172Z,39.00
2023-08-30T16:44:12.749Z,39.00
2023-08-30T16:46:39.885Z,40.00
2023-08-30T16:49:07.289Z,39.50
2023-08-30T16:51:34.073Z,39.30
2023-08-30T16:54:00.885Z,39.90
2023-08-30T16:56:28.651Z,39.40
2023-08-30T16:58:55.562Z,39.50
2023-08-30T17:01:23.704Z,39.20
2023-08-30T17:03:50.579Z,39.20
2023-08-30T17:06:17.358Z,39.50
2023-08-30T17:08:44.116Z,39.80
2023-08-30T17:11:11.267Z,39.00
2023-08-30T17:13:38.215Z,38.70
2023-08-30T17:16:05.874Z,39.30
2023-08-30T17:18:34.086Z,39.00
2023-08-30T17:21:00.946Z,39.50
2023-08-30T17:23:27.786Z,39.70
2023-08-30T17:25:54.582Z,39.70
2023-08-30T17:28:21.439Z,40.20
2023-08-30T17:30:48.237Z,39.80
2023-08-30T17:33:15.454Z,39.80
2023-08-30T17:35:43.858Z,39.90
2023-08-30T17:38:10.800Z,40.30
2023-08-30T17:40:37.697Z,40.30
2023-08-30T17:43:07.350Z,40.50
2023-08-30T17:45:34.479Z,40.30
2023-08-30T17:48:01.757Z,40.70
2023-08-30T17:50:30.557Z,40.50
2023-08-30T17:52:58.658Z,40.50
2023-08-30T17:55:25.981Z,40.80
2023-08-30T17:57:54.432Z,40.80
2023-08-30T18:00:21.194Z,40.90
2023-08-30T18:02:48.635Z,41.00
2023-08-30T18:05:16.270Z,40.90
2023-08-30T18:07:43.570Z,40.90
2023-08-30T18:10:12.558Z,41.10
2023-08-30T18:12:39.648Z,41.00
2023-08-30T18:15:07.604Z,40.90
2023-08-30T18:17:34.408Z,41.00
2023-08-30T18:20:01.363Z,40.80
2023-08-30T18:22:28.402Z,41.20
2023-08-30T18:24:55.180Z,41.20
2023-08-30T18:27:23.315Z,41.20
2023-08-30T18:29:50.090Z,41.30
2023-08-30T18:32:16.910Z,41.10
2023-08-30T18:34:44.300Z,41.50
2023-08-30T18:37:11.310Z,41.30
2023-08-30T18:39:38.099Z,41.90
2023-08-30T18:42:05.163Z,42.00
2023-08-30T18:44:33.261Z,42.30
2023-08-30T18:47:00.273Z,42.30
2023-08-30T18:49:27.070Z,42.40
2023-08-30T18:51:53.835Z,42.60
2023-08-30T18:54:20.839Z,42.70
2023-08-30T18:56:47.624Z,42.80
2023-08-30T18:59:14.437Z,42.90
2023-08-30T19:01:42.766Z,43.00
2023-08-30T19:04:09.558Z,42.90
2023-08-30T19:06:36.343Z,43.00
2023-08-30T19:09:03.090Z,43.10
2023-08-30T19:11:30.017Z,43.10
2023-08-30T19:13:56.759Z,43.20
2023-08-30T19:16:23.724Z,43.10
2023-08-30T19:18:51.944Z,43.20
2023-08-30T19:21:18.836Z,43.30
2023-08-30T19:23:45.710Z,43.90
2023-08-30T19:26:13.019Z,43.30
2023-08-30T19:28:39.874Z,43.40
2023-08-30T19:31:06.758Z,43.40
2023-08-30T19:33:34.799Z,43.50
2023-08-30T19:36:02.946Z,43.50
2023-08-30T19:38:29.764Z,44.30
2023-08-30T19:40:56.848Z,43.60
2023-08-30T19:43:24.025Z,43.70
2023-08-30T19:46:00.922Z,43.80
2023-08-30T19:48:27.833Z,43.90
2023-08-30T19:50:55.040Z,44.20
2023-08-30T19:53:23.384Z,45.50
2023-08-30T19:55:52.508Z,47.20
2023-08-30T19:58:20.339Z,47.00
2023-08-30T20:00:47.349Z,47.40
2023-08-30T20:03:14.397Z,47.60
2023-08-30T20:05:47.962Z,47.50
2023-08-30T20:08:14.847Z,48.20
2023-08-30T20:10:43.133Z,48.30
2023-08-30T20:13:10.312Z,48.60
2023-08-30T20:15:37.405Z,49.20
2023-08-30T20:18:06.738Z,49.80
2023-08-30T20:20:37.200Z,50.30
2023-08-30T20:23:04.295Z,50.40
2023-08-30T20:25:31.427Z,50.60
2023-08-30T20:28:00.601Z,51.10
2023-08-30T20:30:27.713Z,51.40
2023-08-30T20:32:54.823Z,51.40
2023-08-30T20:35:21.892Z,51.30
2023-08-30T20:37:49.058Z,51.10
2023-08-30T20:40:16.336Z,50.70
2023-08-30T20:42:46.843Z,51.10
2023-08-30T20:45:15.420Z,51.10
2023-08-30T20:47:42.304Z,51.50
2023-08-30T20:50:09.491Z,50.90
2023-08-30T20:52:36.282Z,51.50
2023-08-30T20:55:03.409Z,50.40
2023-08-30T20:57:30.158Z,50.40
2023-08-30T20:59:57.097Z,50.60
2023-08-30T21:02:25.523Z,50.90
2023-08-30T21:04:52.392Z,51.20
2023-08-30T21:07:19.196Z,51.30
2023-08-30T21:09:45.947Z,51.20
2023-08-30T21:12:12.911Z,51.40
2023-08-30T21:14:39.699Z,51.10
2023-08-30T21:17:06.481Z,50.60
2023-08-30T21:19:34.708Z,50.30
2023-08-30T21:22:01.538Z,49.80
2023-08-30T21:24:28.475Z,50.00
2023-08-30T21:26:55.369Z,49.30
2023-08-30T21:29:22.135Z,49.10
2023-08-30T21:31:48.897Z,49.10
2023-08-30T21:34:15.644Z,49.30
2023-08-30T21:36:43.880Z,49.40
2023-08-30T21:39:14.217Z,49.10
2023-08-30T21:41:41.066Z,49.80
2023-08-30T21:44:08.365Z,50.30
2023-08-30T21:46:35.418Z,50.60
2023-08-30T21:49:02.876Z,50.20
2023-08-30T21:51:29.667Z,50.70
2023-08-30T21:53:57.804Z,50.50
2023-08-30T21:56:24.595Z,50.40
2023-08-30T21:58:51.393Z,50.70
2023-08-30T22:01:18.331Z,50.90
2023-08-30T22:03:45.295Z,50.90
2023-08-30T22:06:12.155Z,51.10
2023-08-30T22:08:39.180Z,50.80
2023-08-30T22:11:09.456Z,51.00
2023-08-30T22:13:36.660Z,50.50
2023-08-30T22:16:03.726Z,49.70
2023-08-30T22:18:30.818Z,49.20
2023-08-30T22:20:57.817Z,49.20
2023-08-30T22:23:27.317Z,49.80
2023-08-30T22:25:54.286Z,49.60
2023-08-30T22:28:22.692Z,49.30
2023-08-30T22:30:49.675Z,50.10
2023-08-30T22:33:16.623Z,50.20
2023-08-30T22:35:43.567Z,50.00
2023-08-30T22:38:10.543Z,49.70
2023-08-30T22:40:37.617Z,49.50
2023-08-30T22:43:04.691Z,49.80
2023-08-30T22:45:33.198Z,49.90
2023-08-30T22:48:00.112Z,50.00
2023-08-30T22:50:27.084Z,49.50
2023-08-30T22:52:53.984Z,49.80
2023-08-30T22:55:21.132Z,50.10
2023-08-30T22:57:48.083Z,49.80
2023-08-30T23:00:15.454Z,49.50
2023-08-30T23:02:43.912Z,49.90
2023-08-30T23:05:11.292Z,49.60
2023-08-30T23:07:38.130Z,49.20
2023-08-30T23:10:06.184Z,49.30
2023-08-30T23:12:33.056Z,50.20
2023-08-30T23:15:00.168Z,50.10
2023-08-30T23:17:27.163Z,50.10
2023-08-30T23:19:57.566Z,50.50
2023-08-30T23:22:24.354Z,50.80
2023-08-30T23:24:51.103Z,51.00
2023-08-30T23:27:17.868Z,50.90
2023-08-30T23:29:44.622Z,50.30
2023-08-30T23:32:11.406Z,49.70
2023-08-30T23:34:38.149Z,50.10
2023-08-30T23:37:06.383Z,49.80
2023-08-30T23:39:33.139Z,49.80
2023-08-30T23:41:59.867Z,49.80
2023-08-30T23:44:26.722Z,49.80
2023-08-30T23:46:53.527Z,50.40
2023-08-30T23:49:20.341Z,49.90
2023-08-30T23:51:47.257Z,50.20
2023-08-30T23:54:15.480Z,50.40
2023-08-30T23:56:42.325Z,50.20
2023-08-30T23:59:09.115Z,50.50
